Terminal Aerodrome Forecast
Issued by NWS

Home | Current Version | Previous Version | Text Only | Print | Product List | Glossary On
Versions: 1 2 3 4 5 6 7 8 9 10 11 12 13 14 15 16 17 18 19 20 21 22 23 24 25 26 27 28 29 30 31 32 33 34 35
000
FTUS43 KGRB 280520
TAFRHI
TAF
KRHI 280520Z 2806/2906 VRB03KT P6SM SCT070
     FM281500 18008KT P6SM SCT050 BKN090 PROB30 2822/2902 -SHRA
      BKN040
     FM290200 VRB03KT P6SM SCT040 BKN080=

USA.gov is the U.S. government's official web portal to all federal, state and local government web resources and services.